Time;durP1;ratioP1;P1;durP2;ratioP2;P2;SDS_P1;SDS_P2;PMS_P1;PMS_P2;Temp;Humidity;BMP_temperature;BMP_pressure;BME280_temperature;BME280_humidity;BME280_pressure;Samples;Min_cycle;Max_cycle;Signal;HPM_P1;HPM_P2
2024/01/01 00:00:27;;;;;;;13.73;5.25;;;;;;;7.46;100.00;99558.81;5052008;28;20378;-75
2024/01/01 00:02:52;;;;;;;9.95;3.80;;;;;;;7.39;100.00;99547.47;5051618;28;20032;-75
2024/01/01 00:05:18;;;;;;;7.50;3.30;;;;;;;7.32;100.00;99563.50;5051494;28;20025;-75
2024/01/01 00:07:43;;;;;;;9.57;3.70;;;;;;;7.32;100.00;99539.59;5051555;28;20032;-82
2024/01/01 00:10:09;;;;;;;11.13;3.40;;;;;;;7.42;100.00;99582.41;5033613;28;20033;-78
2024/01/01 00:12:35;;;;;;;7.63;3.50;;;;;;;7.49;100.00;99547.72;5051375;28;20113;-78
2024/01/01 00:15:00;;;;;;;6.03;3.25;;;;;;;7.47;100.00;99579.06;5051200;28;20389;-74
2024/01/01 00:17:25;;;;;;;8.57;3.22;;;;;;;7.37;100.00;99570.81;5033257;28;20025;-76
2024/01/01 00:19:51;;;;;;;7.18;3.70;;;;;;;7.22;100.00;99557.91;5051068;28;20443;-76
2024/01/01 00:22:16;;;;;;;3.97;2.00;;;;;;;7.20;100.00;99561.81;5051223;28;20029;-76
2024/01/01 00:24:42;;;;;;;5.03;2.67;;;;;;;6.97;100.00;99571.31;5051080;28;20100;-75
2024/01/01 00:27:07;;;;;;;5.82;2.70;;;;;;;6.92;100.00;99579.09;5050990;28;20052;-75
2024/01/01 00:29:32;;;;;;;5.38;2.20;;;;;;;6.80;100.00;99565.75;5033109;28;20115;-75
2024/01/01 00:31:58;;;;;;;3.90;2.45;;;;;;;6.73;100.00;99572.19;5050989;28;20033;-77
2024/01/01 00:34:23;;;;;;;5.47;2.20;;;;;;;6.66;100.00;99580.22;5050991;28;20029;-76
2024/01/01 00:36:49;;;;;;;3.78;2.78;;;;;;;6.56;100.00;99589.69;5033101;28;20025;-75
2024/01/01 00:39:14;;;;;;;8.13;2.63;;;;;;;6.44;100.00;99589.59;5054128;28;20025;-75
2024/01/01 00:41:40;;;;;;;6.38;2.97;;;;;;;6.50;100.00;99570.97;5036660;28;20546;-75
2024/01/01 00:44:05;;;;;;;5.75;2.47;;;;;;;6.36;100.00;99585.41;5036602;28;20497;-75
2024/01/01 00:46:31;;;;;;;7.30;3.47;;;;;;;6.35;100.00;99577.63;5054533;28;20033;-76
2024/01/01 00:48:57;;;;;;;6.43;3.17;;;;;;;6.28;100.00;99569.72;5036447;28;20049;-74
2024/01/01 00:51:23;;;;;;;7.75;3.30;;;;;;;6.25;100.00;99569.34;5054354;28;20025;-75
2024/01/01 00:53:48;;;;;;;7.45;3.08;;;;;;;6.16;100.00;99572.28;5036481;28;20037;-75
2024/01/01 00:56:14;;;;;;;6.30;3.13;;;;;;;6.19;100.00;99566.53;5054472;28;20029;-74
2024/01/01 00:58:40;;;;;;;9.45;2.70;;;;;;;5.96;100.00;99553.03;5054437;28;20053;-75
2024/01/01 01:01:07;;;;;;;5.90;3.08;;;;;;;6.01;100.00;99576.25;5054516;28;20025;-76
2024/01/01 01:03:34;;;;;;;6.65;3.50;;;;;;;5.93;100.00;99566.75;5054302;28;20431;-75
2024/01/01 01:06:00;;;;;;;5.20;2.85;;;;;;;5.74;100.00;99555.19;5036284;28;20036;-75
2024/01/01 01:08:25;;;;;;;9.32;3.80;;;;;;;5.72;100.00;99559.91;5036231;28;20032;-74
2024/01/01 01:10:50;;;;;;;7.65;3.58;;;;;;;5.73;100.00;99590.69;5036129;28;20029;-75
2024/01/01 01:13:16;;;;;;;6.93;3.33;;;;;;;5.72;100.00;99575.81;5053970;28;20025;-76
2024/01/01 01:15:42;;;;;;;7.07;3.28;;;;;;;5.81;100.00;99606.38;5054021;28;20025;-76
2024/01/01 01:18:07;;;;;;;7.80;3.22;;;;;;;5.82;100.00;99583.31;5053905;28;20140;-74
2024/01/01 01:20:32;;;;;;;7.70;4.05;;;;;;;5.72;100.00;99598.88;5053842;28;20029;-74
2024/01/01 01:22:58;;;;;;;5.90;3.40;;;;;;;5.84;100.00;99586.56;5053975;28;20041;-76
2024/01/01 01:25:24;;;;;;;8.00;3.95;;;;;;;5.85;100.00;99590.84;5053857;28;20078;-76
2024/01/01 01:27:49;;;;;;;8.07;3.15;;;;;;;5.97;100.00;99598.94;5053916;28;20041;-75
2024/01/01 01:30:15;;;;;;;6.85;3.38;;;;;;;5.97;100.00;99599.75;5035701;28;20167;-76
2024/01/01 01:32:40;;;;;;;7.05;3.58;;;;;;;5.99;100.00;99589.75;5053655;28;20033;-74
2024/01/01 01:35:06;;;;;;;4.07;2.83;;;;;;;6.01;100.00;99589.53;5053606;28;20502;-75
2024/01/01 01:37:31;;;;;;;8.13;3.60;;;;;;;5.94;100.00;99602.03;5035910;28;20117;-74
2024/01/01 01:39:56;;;;;;;6.80;3.25;;;;;;;5.94;100.00;99610.81;5053562;28;20057;-76
2024/01/01 01:42:22;;;;;;;5.68;3.15;;;;;;;5.90;100.00;99602.47;5035645;28;20064;-77
2024/01/01 01:44:47;;;;;;;7.30;3.75;;;;;;;5.90;100.00;99578.59;5053458;28;20143;-78
2024/01/01 01:47:13;;;;;;;8.63;4.18;;;;;;;5.84;100.00;99599.84;5053565;28;20414;-76
2024/01/01 01:49:40;;;;;;;8.35;3.00;;;;;;;5.82;100.00;99608.00;5034598;28;20545;-76
2024/01/01 01:52:06;;;;;;;8.23;3.80;;;;;;;5.86;100.00;99593.28;5035680;28;20025;-74
2024/01/01 01:54:34;;;;;;;8.75;3.75;;;;;;;5.80;100.00;99591.50;5053530;28;20025;-76
2024/01/01 01:57:01;;;;;;;8.85;2.90;;;;;;;5.81;100.00;99585.16;5035569;28;20021;-76
2024/01/01 01:59:27;;;;;;;9.52;3.85;;;;;;;5.92;100.00;99593.47;5035472;28;20021;-74
2024/01/01 02:01:52;;;;;;;7.55;3.17;;;;;;;5.96;100.00;99615.91;5035679;28;20439;-75
2024/01/01 02:04:18;;;;;;;10.93;3.22;;;;;;;5.95;100.00;99599.16;5035792;28;20473;-75
2024/01/01 02:06:45;;;;;;;14.27;3.42;;;;;;;5.89;100.00;99587.56;5035867;28;20056;-76
2024/01/01 02:09:10;;;;;;;10.00;4.30;;;;;;;5.84;100.00;99598.00;5035504;28;20025;-74
2024/01/01 02:11:36;;;;;;;8.40;3.50;;;;;;;5.74;100.00;99604.78;5035475;28;20076;-75
2024/01/01 02:14:12;;;;;;;10.57;3.47;;;;;;;5.76;100.00;99597.41;5035140;28;20033;-76
2024/01/01 02:16:41;;;;;;;13.40;4.43;;;;;;;5.71;100.00;99576.03;5035289;28;20499;-75
2024/01/01 02:19:22;;;;;;;11.60;4.45;;;;;;;5.66;100.00;99607.69;5035330;28;20389;-77
2024/01/01 02:21:50;;;;;;;9.18;3.10;;;;;;;5.50;100.00;99611.66;5035371;28;20047;-76
2024/01/01 02:24:16;;;;;;;5.32;3.00;;;;;;;5.48;100.00;99597.75;5035439;28;20052;-77
2024/01/01 02:26:45;;;;;;;10.77;3.78;;;;;;;5.47;100.00;99606.75;5053182;28;20072;-76
2024/01/01 02:29:11;;;;;;;12.15;4.65;;;;;;;5.55;100.00;99610.00;5035240;28;20025;-76
2024/01/01 02:31:37;;;;;;;13.57;4.30;;;;;;;5.59;100.00;99594.47;5035273;28;20115;-76
2024/01/01 02:34:03;;;;;;;12.10;3.05;;;;;;;5.56;100.00;99621.41;5052965;28;20452;-76
2024/01/01 02:36:29;;;;;;;9.70;3.65;;;;;;;5.51;100.00;99621.22;5035345;28;20086;-76
2024/01/01 02:38:55;;;;;;;14.07;3.92;;;;;;;5.66;100.00;99628.91;5035152;28;20437;-76
2024/01/01 02:41:21;;;;;;;10.77;3.92;;;;;;;5.67;100.00;99623.38;5053038;28;20036;-75
2024/01/01 02:43:46;;;;;;;15.38;3.70;;;;;;;5.51;100.00;99611.44;5034970;28;20075;-76
2024/01/01 02:46:11;;;;;;;11.23;3.80;;;;;;;5.49;100.00;99626.75;5035244;28;20041;-76
2024/01/01 02:48:37;;;;;;;17.40;4.35;;;;;;;5.31;100.00;99613.34;5035210;28;20025;-76
2024/01/01 02:51:03;;;;;;;18.13;4.45;;;;;;;5.42;100.00;99633.88;5035068;28;20065;-77
2024/01/01 02:53:28;;;;;;;16.15;4.20;;;;;;;5.41;100.00;99626.16;5018489;28;20021;-75
2024/01/01 02:55:54;;;;;;;13.70;3.55;;;;;;;5.46;100.00;99628.97;5034965;28;20376;-77
2024/01/01 02:58:19;;;;;;;13.02;3.80;;;;;;;5.49;100.00;99624.09;5052890;28;20025;-76
2024/01/01 03:00:47;;;;;;;14.40;3.28;;;;;;;5.41;100.00;99634.91;5034795;28;20485;-77
2024/01/01 03:03:13;;;;;;;13.90;3.30;;;;;;;5.48;100.00;99609.19;5034639;28;20025;-77
2024/01/01 03:05:39;;;;;;;11.90;3.63;;;;;;;5.43;100.00;99616.16;5052176;28;20115;-77
2024/01/01 03:08:05;;;;;;;15.00;3.40;;;;;;;5.54;100.00;99628.75;5052182;28;20191;-77
2024/01/01 03:10:30;;;;;;;10.25;3.70;;;;;;;5.49;100.00;99631.19;5052337;28;20029;-77
2024/01/01 03:12:55;;;;;;;12.10;3.35;;;;;;;5.48;100.00;99624.28;5034242;28;20028;-77
2024/01/01 03:15:21;;;;;;;12.30;4.22;;;;;;;5.50;100.00;99628.38;5034232;28;20033;-77
2024/01/01 03:17:46;;;;;;;13.32;4.55;;;;;;;5.60;100.00;99598.75;5034234;28;20039;-76
2024/01/01 03:20:11;;;;;;;10.77;3.05;;;;;;;5.69;100.00;99626.63;5051963;28;20027;-77
2024/01/01 03:22:37;;;;;;;14.07;3.53;;;;;;;5.55;100.00;99646.28;5034295;28;20044;-78
2024/01/01 03:25:03;;;;;;;6.40;3.25;;;;;;;5.52;100.00;99649.38;5052034;28;20435;-77
2024/01/01 03:27:29;;;;;;;11.75;3.97;;;;;;;5.46;100.00;99631.63;5017689;28;20136;-77
2024/01/01 03:29:54;;;;;;;13.30;3.50;;;;;;;5.40;100.00;99638.59;5051924;28;20060;-77
2024/01/01 03:32:20;;;;;;;8.60;3.08;;;;;;;5.44;100.00;99654.88;5051924;28;20067;-77
2024/01/01 03:34:45;;;;;;;17.48;3.67;;;;;;;5.42;100.00;99655.09;5051725;28;20104;-78
2024/01/01 03:37:10;;;;;;;9.30;2.75;;;;;;;5.50;100.00;99656.72;5034009;28;20068;-77
2024/01/01 03:39:36;;;;;;;9.05;2.88;;;;;;;5.48;100.00;99634.88;5033916;28;20032;-76
2024/01/01 03:42:01;;;;;;;17.88;4.97;;;;;;;5.69;100.00;99655.00;5033860;28;20485;-76
2024/01/01 03:44:27;;;;;;;12.57;3.47;;;;;;;5.63;100.00;99646.03;5051673;28;20108;-77
2024/01/01 03:46:52;;;;;;;10.70;3.25;;;;;;;5.75;100.00;99649.66;5033825;28;20056;-76
2024/01/01 03:49:17;;;;;;;13.80;3.53;;;;;;;5.73;100.00;99649.03;5051803;28;20060;-77
2024/01/01 03:51:43;;;;;;;11.15;3.90;;;;;;;5.76;100.00;99639.84;5051582;28;20497;-76
2024/01/01 03:54:08;;;;;;;13.80;2.90;;;;;;;5.71;100.00;99651.09;5051494;28;20579;-77
2024/01/01 03:56:33;;;;;;;14.43;3.75;;;;;;;5.78;100.00;99672.28;5033816;28;20032;-75
2024/01/01 03:58:59;;;;;;;9.75;4.18;;;;;;;5.85;100.00;99646.56;5033722;28;20422;-80
2024/01/01 04:01:26;;;;;;;12.52;3.78;;;;;;;5.81;100.00;99637.41;5051586;28;20028;-78
2024/01/01 04:03:52;;;;;;;10.45;3.28;;;;;;;5.83;100.00;99644.13;5033877;28;20400;-77
2024/01/01 04:06:18;;;;;;;12.40;3.42;;;;;;;5.90;100.00;99639.59;5051455;28;20112;-77
2024/01/01 04:08:43;;;;;;;13.27;4.20;;;;;;;5.94;100.00;99649.78;5051531;28;20513;-76
2024/01/01 04:11:09;;;;;;;11.73;4.05;;;;;;;5.99;100.00;99645.47;5051265;28;20029;-78
2024/01/01 04:13:34;;;;;;;15.50;4.05;;;;;;;6.02;100.00;99653.00;5053682;28;20104;-78
2024/01/01 04:16:01;;;;;;;15.38;3.60;;;;;;;5.96;100.00;99647.72;5037003;28;20029;-77
2024/01/01 04:18:27;;;;;;;8.35;3.38;;;;;;;5.88;100.00;99662.84;5036866;28;20031;-76
2024/01/01 04:20:53;;;;;;;11.13;3.15;;;;;;;5.81;100.00;99648.81;5054878;28;20077;-76
2024/01/01 04:23:18;;;;;;;12.70;3.50;;;;;;;5.84;100.00;99661.66;5054791;28;20033;-77
2024/01/01 04:25:44;;;;;;;8.27;2.65;;;;;;;5.96;100.00;99647.72;5054836;28;20492;-78
2024/01/01 04:28:09;;;;;;;9.32;3.33;;;;;;;5.97;100.00;99662.63;5054799;28;20430;-78
2024/01/01 04:30:34;;;;;;;11.35;2.67;;;;;;;5.95;100.00;99660.19;5036853;28;20029;-78
2024/01/01 04:32:59;;;;;;;6.55;2.65;;;;;;;6.02;100.00;99654.84;5054673;28;20025;-78
2024/01/01 04:35:25;;;;;;;5.95;2.30;;;;;;;6.03;100.00;99686.47;5054723;28;20510;-77
2024/01/01 04:37:50;;;;;;;11.32;3.35;;;;;;;6.05;100.00;99654.41;5054614;28;20462;-77
2024/01/01 04:40:16;;;;;;;7.18;2.40;;;;;;;6.06;100.00;99658.69;5054863;28;20049;-76
2024/01/01 04:42:41;;;;;;;11.38;3.65;;;;;;;6.09;100.00;99667.06;5054579;28;20036;-76
2024/01/01 04:45:07;;;;;;;11.00;3.67;;;;;;;6.14;100.00;99677.84;5036614;28;20083;-76
2024/01/01 04:47:32;;;;;;;10.82;3.22;;;;;;;6.19;100.00;99685.16;5054457;28;20389;-77
2024/01/01 04:49:58;;;;;;;6.78;3.22;;;;;;;6.11;100.00;99635.81;5036549;28;20091;-80
2024/01/01 04:52:23;;;;;;;7.63;2.63;;;;;;;6.15;100.00;99654.78;5054509;28;20033;-79
2024/01/01 04:54:48;;;;;;;9.98;3.70;;;;;;;6.13;100.00;99668.25;5054312;28;20028;-77
2024/01/01 04:57:14;;;;;;;12.85;4.05;;;;;;;6.17;100.00;99696.00;5054278;28;20039;-76
2024/01/01 04:59:39;;;;;;;10.93;3.33;;;;;;;6.06;100.00;99696.66;5036436;28;20028;-77
2024/01/01 05:02:04;;;;;;;7.28;2.50;;;;;;;5.99;100.00;99679.16;5054228;28;20039;-78
2024/01/01 05:04:30;;;;;;;10.32;3.63;;;;;;;6.16;100.00;99669.66;5054280;28;20376;-78
2024/01/01 05:06:55;;;;;;;5.50;2.90;;;;;;;6.25;100.00;99670.22;5054075;28;20355;-78
2024/01/01 05:09:20;;;;;;;12.13;3.72;;;;;;;6.18;100.00;99681.69;5054130;28;20051;-75
2024/01/01 05:11:46;;;;;;;9.25;2.95;;;;;;;6.11;100.00;99680.94;5036229;28;20504;-76
2024/01/01 05:14:11;;;;;;;11.20;3.75;;;;;;;6.17;100.00;99664.13;5036061;28;20040;-77
2024/01/01 05:16:36;;;;;;;8.77;2.85;;;;;;;6.14;100.00;99712.34;5054110;28;20131;-78
2024/01/01 05:19:02;;;;;;;8.50;3.05;;;;;;;6.21;100.00;99691.88;5036101;28;20029;-76
2024/01/01 05:21:28;;;;;;;9.35;2.95;;;;;;;6.17;100.00;99714.56;5036357;28;20033;-77
2024/01/01 05:23:53;;;;;;;9.77;2.88;;;;;;;6.11;100.00;99717.25;5035889;28;20028;-76
2024/01/01 05:26:18;;;;;;;7.53;2.53;;;;;;;6.18;100.00;99740.06;5053886;28;20035;-78
2024/01/01 05:28:44;;;;;;;10.75;2.60;;;;;;;6.12;100.00;99702.97;5036163;28;20143;-78
2024/01/01 05:31:09;;;;;;;5.95;2.45;;;;;;;6.14;100.00;99708.88;5035999;28;20083;-77
2024/01/01 05:33:35;;;;;;;13.40;3.83;;;;;;;6.18;100.00;99720.69;5035964;28;20162;-77
2024/01/01 05:36:01;;;;;;;8.50;2.75;;;;;;;6.14;100.00;99716.84;5053795;28;20513;-78
2024/01/01 05:38:26;;;;;;;6.20;2.65;;;;;;;6.08;100.00;99712.38;5035888;28;20031;-78
2024/01/01 05:40:52;;;;;;;6.90;2.90;;;;;;;6.11;100.00;99717.25;5053675;28;20071;-77
2024/01/01 05:43:18;;;;;;;8.75;2.60;;;;;;;6.14;100.00;99730.09;5053678;28;20047;-77
2024/01/01 05:45:44;;;;;;;7.10;2.63;;;;;;;6.15;100.00;99713.97;5053540;28;20025;-78
2024/01/01 05:48:10;;;;;;;9.27;2.92;;;;;;;6.24;100.00;99735.75;5035644;28;20109;-78
2024/01/01 05:50:35;;;;;;;8.32;3.20;;;;;;;6.19;100.00;99738.25;5035596;28;20021;-78
2024/01/01 05:53:00;;;;;;;10.05;3.17;;;;;;;6.20;100.00;99715.97;5053443;28;20434;-79
2024/01/01 05:55:28;;;;;;;7.78;2.78;;;;;;;6.17;100.00;99748.25;5053530;28;20040;-78
2024/01/01 05:57:53;;;;;;;9.82;3.35;;;;;;;6.10;100.00;99743.00;5053627;28;20029;-77
2024/01/01 06:00:19;;;;;;;10.68;4.35;;;;;;;6.08;100.00;99757.50;5035439;28;20067;-78
2024/01/01 06:02:44;;;;;;;9.23;2.72;;;;;;;5.93;100.00;99733.88;5053285;28;20390;-78
2024/01/01 06:05:10;;;;;;;9.85;2.90;;;;;;;5.88;100.00;99762.84;5053201;28;20025;-77
2024/01/01 06:07:35;;;;;;;6.85;2.45;;;;;;;5.65;100.00;99747.41;5053279;28;20118;-79
2024/01/01 06:10:01;;;;;;;9.73;2.65;;;;;;;5.43;100.00;99754.00;5053308;28;20017;-79
2024/01/01 06:12:26;;;;;;;7.75;2.70;;;;;;;5.47;100.00;99729.50;5035188;28;20035;-78
2024/01/01 06:14:52;;;;;;;10.27;2.72;;;;;;;5.45;100.00;99759.91;5052932;28;20029;-78
2024/01/01 06:17:17;;;;;;;12.57;2.80;;;;;;;5.42;100.00;99755.00;5035075;28;20444;-80
2024/01/01 06:19:42;;;;;;;7.80;2.60;;;;;;;5.45;100.00;99760.72;5052914;28;20473;-80
2024/01/01 06:22:08;;;;;;;10.35;3.28;;;;;;;5.46;100.00;99772.13;5052972;28;20090;-78
2024/01/01 06:24:33;;;;;;;11.43;3.28;;;;;;;5.44;100.00;99774.16;5052822;28;20029;-79
2024/01/01 06:26:58;;;;;;;11.48;3.67;;;;;;;5.46;100.00;99770.28;5052934;28;20115;-78
2024/01/01 06:29:26;;;;;;;10.63;3.13;;;;;;;5.54;100.00;99785.19;5053046;28;20100;-79
2024/01/01 06:31:52;;;;;;;8.10;2.63;;;;;;;5.43;100.00;99780.50;5035004;28;20098;-79
2024/01/01 06:34:18;;;;;;;12.05;3.08;;;;;;;5.49;100.00;99792.91;5052753;28;20045;-80
2024/01/01 06:36:43;;;;;;;9.07;3.00;;;;;;;5.44;100.00;99787.44;5052183;28;20032;-77
2024/01/01 06:39:08;;;;;;;9.75;3.05;;;;;;;5.45;100.00;99789.06;5052850;28;20108;-78
2024/01/01 06:41:34;;;;;;;9.75;3.00;;;;;;;5.46;100.00;99811.88;5034756;28;20469;-79
2024/01/01 06:43:59;;;;;;;11.38;2.55;;;;;;;5.58;100.00;99808.44;5034794;28;20392;-79
2024/01/01 06:46:25;;;;;;;13.40;4.22;;;;;;;5.56;100.00;99828.22;5052649;28;20362;-79
2024/01/01 06:48:50;;;;;;;10.38;2.30;;;;;;;5.52;100.00;99830.47;5052582;28;20037;-78
2024/01/01 06:51:15;;;;;;;8.43;2.63;;;;;;;5.50;100.00;99839.66;5052361;28;20079;-78
2024/01/01 06:53:41;;;;;;;8.23;2.92;;;;;;;5.37;100.00;99840.47;5052397;28;20036;-79
2024/01/01 06:56:06;;;;;;;9.10;3.08;;;;;;;5.31;100.00;99835.16;5052427;28;20032;-80
2024/01/01 06:58:32;;;;;;;10.32;3.70;;;;;;;5.33;100.00;99849.84;5052592;28;20025;-78
2024/01/01 07:00:58;;;;;;;13.05;3.97;;;;;;;5.34;100.00;99829.44;5052363;28;20029;-76
2024/01/01 07:03:23;;;;;;;6.97;3.00;;;;;;;5.33;100.00;99833.13;5052342;28;20025;-77
2024/01/01 07:05:48;;;;;;;15.32;3.60;;;;;;;5.35;100.00;99852.28;5052238;28;20481;-76
2024/01/01 07:08:13;;;;;;;8.75;2.88;;;;;;;5.37;100.00;99837.00;5052202;28;20024;-78
2024/01/01 07:10:39;;;;;;;9.50;3.47;;;;;;;5.29;100.00;99859.22;5052281;28;20478;-76
2024/01/01 07:13:04;;;;;;;9.98;3.17;;;;;;;5.20;100.00;99841.88;5034217;28;20472;-77
2024/01/01 07:15:30;;;;;;;20.17;3.53;;;;;;;5.23;100.00;99870.66;5052096;28;20037;-78
2024/01/01 07:17:55;;;;;;;13.07;4.38;;;;;;;5.24;100.00;99843.13;5034218;28;20036;-77
2024/01/01 07:20:20;;;;;;;11.52;2.80;;;;;;;5.28;100.00;99857.59;5052105;28;20033;-78
2024/01/01 07:22:46;;;;;;;13.88;3.25;;;;;;;5.32;100.00;99853.50;5052006;28;20029;-78
2024/01/01 07:25:12;;;;;;;12.43;3.28;;;;;;;5.37;100.00;99861.66;5051981;28;20052;-77
2024/01/01 07:27:39;;;;;;;11.30;3.20;;;;;;;5.35;100.00;99869.00;5051979;28;20072;-77
2024/01/01 07:30:06;;;;;;;6.43;2.70;;;;;;;5.34;100.00;99872.69;5051909;28;20050;-77
2024/01/01 07:32:31;;;;;;;7.50;3.00;;;;;;;5.33;100.00;99872.88;5051913;28;20485;-78
2024/01/01 07:34:56;;;;;;;9.13;2.53;;;;;;;5.37;100.00;99874.09;5051716;28;20040;-78
2024/01/01 07:37:22;;;;;;;11.93;3.65;;;;;;;5.41;100.00;99896.53;5033980;28;20109;-78
2024/01/01 07:39:47;;;;;;;9.50;2.92;;;;;;;5.28;100.00;99876.97;5051791;28;20363;-77
2024/01/01 07:42:12;;;;;;;13.25;3.88;;;;;;;5.43;100.00;99894.47;5051962;28;20064;-78
2024/01/01 07:44:38;;;;;;;9.27;3.42;;;;;;;5.40;100.00;99898.34;5051682;28;20043;-78
2024/01/01 07:47:03;;;;;;;15.65;4.18;;;;;;;5.41;100.00;99901.81;5032599;28;20029;-79
2024/01/01 07:49:29;;;;;;;9.15;3.60;;;;;;;5.41;100.00;99899.19;5051470;28;20079;-78
2024/01/01 07:51:54;;;;;;;13.85;3.58;;;;;;;5.46;100.00;99904.69;5051638;28;20029;-77
2024/01/01 07:54:19;;;;;;;11.40;3.17;;;;;;;5.43;100.00;99902.44;5051624;28;20029;-77
2024/01/01 07:56:47;;;;;;;8.43;3.00;;;;;;;5.39;100.00;99898.56;5033544;28;20075;-77
2024/01/01 07:59:12;;;;;;;10.23;3.28;;;;;;;5.36;100.00;99912.22;5051568;28;20128;-77
2024/01/01 08:01:39;;;;;;;10.48;3.65;;;;;;;5.36;100.00;99898.97;5051457;28;20108;-79
2024/01/01 08:04:04;;;;;;;9.13;3.80;;;;;;;5.31;100.00;99918.16;5051480;28;20111;-77
2024/01/01 08:06:29;;;;;;;18.00;3.63;;;;;;;5.28;100.00;99915.91;5051329;28;20440;-77
2024/01/01 08:08:55;;;;;;;14.05;3.65;;;;;;;5.25;100.00;99927.72;5051305;28;20488;-77
2024/01/01 08:11:20;;;;;;;10.10;3.00;;;;;;;5.33;100.00;99931.19;5051372;28;20108;-79
2024/01/01 08:13:45;;;;;;;8.40;3.40;;;;;;;5.36;100.00;99934.25;5033499;28;20123;-79
2024/01/01 08:16:11;;;;;;;8.82;3.63;;;;;;;5.38;100.00;99936.69;5051402;28;20092;-77
2024/01/01 08:18:37;;;;;;;9.45;3.15;;;;;;;5.44;100.00;99942.00;5033209;28;20428;-78
2024/01/01 08:21:03;;;;;;;9.70;3.28;;;;;;;5.46;100.00;99953.22;5051245;28;20029;-79
2024/01/01 08:23:29;;;;;;;11.98;3.22;;;;;;;5.50;100.00;99969.56;5033277;28;20438;-77
2024/01/01 08:25:54;;;;;;;9.18;3.90;;;;;;;5.56;100.00;99961.59;5033506;28;20075;-78
2024/01/01 08:28:19;;;;;;;11.40;3.50;;;;;;;5.65;100.00;99967.50;5051262;28;20851;-78
2024/01/01 08:30:45;;;;;;;7.68;3.00;;;;;;;5.59;100.00;99968.34;5051153;28;20431;-77
2024/01/01 08:33:11;;;;;;;10.15;3.55;;;;;;;5.46;100.00;99961.16;5033160;28;20033;-78
2024/01/01 08:35:36;;;;;;;12.05;3.45;;;;;;;5.37;100.00;99966.88;5051085;28;20029;-77
2024/01/01 08:38:02;;;;;;;14.20;3.03;;;;;;;5.37;100.00;99969.53;5051118;28;20041;-77
2024/01/01 08:40:27;;;;;;;8.48;3.28;;;;;;;5.32;100.00;99971.97;5033136;28;20377;-78
2024/01/01 08:42:53;;;;;;;11.50;3.45;;;;;;;5.46;100.00;99965.66;5050942;28;20037;-78
2024/01/01 08:45:19;;;;;;;11.07;3.35;;;;;;;5.53;100.00;99982.41;5050960;28;20025;-77
2024/01/01 08:47:45;;;;;;;7.82;2.75;;;;;;;5.52;100.00;99994.84;5050882;28;20047;-78
2024/01/01 08:50:12;;;;;;;8.20;3.58;;;;;;;5.65;100.00;99985.25;5032940;28;20021;-77
2024/01/01 08:52:37;;;;;;;11.65;3.65;;;;;;;5.72;100.00;99996.69;5050990;28;20481;-78
2024/01/01 08:55:03;;;;;;;6.20;2.47;;;;;;;5.64;100.00;99992.41;5033058;28;20025;-78
2024/01/01 08:57:28;;;;;;;8.55;2.75;;;;;;;5.70;100.00;100006.69;5050600;28;20037;-78
2024/01/01 08:59:54;;;;;;;6.93;2.75;;;;;;;5.77;100.00;99997.69;5053466;28;20021;-78
2024/01/01 09:02:19;;;;;;;9.93;3.40;;;;;;;5.88;100.00;99988.34;5054240;28;20465;-77
2024/01/01 09:04:44;;;;;;;9.57;3.25;;;;;;;5.93;100.00;99982.44;5054196;28;20485;-80
2024/01/01 09:07:10;;;;;;;9.65;4.70;;;;;;;6.01;100.00;100008.75;5036296;28;20021;-79
2024/01/01 09:09:37;;;;;;;15.98;3.33;;;;;;;6.02;100.00;100002.44;5036216;28;20384;-78
2024/01/01 09:12:02;;;;;;;11.25;3.25;;;;;;;6.04;100.00;100014.47;5036209;28;20029;-81
2024/01/01 09:14:28;;;;;;;5.60;2.75;;;;;;;6.00;100.00;100015.09;5053963;28;20478;-80
2024/01/01 09:16:53;;;;;;;7.70;3.15;;;;;;;5.89;100.00;100013.84;5053986;28;20021;-81
2024/01/01 09:19:19;;;;;;;9.73;2.97;;;;;;;5.93;100.00;100024.91;5036026;28;20507;-78
2024/01/01 09:21:44;;;;;;;7.07;3.05;;;;;;;5.90;100.00;100018.97;5053896;28;20032;-77
2024/01/01 09:24:09;;;;;;;10.57;3.45;;;;;;;5.92;100.00;100018.78;5053789;28;20025;-76
2024/01/01 09:26:39;;;;;;;12.25;2.90;;;;;;;6.07;100.00;100021.22;5053815;28;20021;-79
2024/01/01 09:29:05;;;;;;;7.45;2.72;;;;;;;6.04;100.00;100026.91;5053766;28;20039;-80
2024/01/01 09:31:33;;;;;;;5.38;2.80;;;;;;;6.08;100.00;100033.47;5053725;28;20104;-80
2024/01/01 09:34:00;;;;;;;4.03;2.40;;;;;;;5.99;100.00;100040.00;5035677;28;20036;-80
2024/01/01 09:36:26;;;;;;;6.78;2.72;;;;;;;5.97;100.00;100042.03;5053707;28;20394;-79
2024/01/01 09:38:52;;;;;;;6.63;3.30;;;;;;;5.75;100.00;100034.22;5053808;28;20021;-77
2024/01/01 09:41:17;;;;;;;7.50;3.17;;;;;;;5.67;100.00;100049.53;5053433;28;20033;-77
2024/01/01 09:43:44;;;;;;;7.45;3.17;;;;;;;5.63;100.00;100053.59;5035087;28;20531;-79
2024/01/01 09:46:11;;;;;;;6.68;3.35;;;;;;;5.56;100.00;100067.66;5035504;28;20086;-78
2024/01/01 09:48:36;;;;;;;9.52;3.30;;;;;;;5.51;100.00;100054.19;5035480;28;20171;-79
2024/01/01 09:51:03;;;;;;;7.10;3.45;;;;;;;5.55;100.00;100068.69;5035260;28;20111;-78
2024/01/01 09:53:30;;;;;;;12.10;3.05;;;;;;;5.63;100.00;100065.03;5035329;28;20052;-79
2024/01/01 09:55:56;;;;;;;13.93;4.13;;;;;;;5.69;100.00;100055.44;5035172;28;20091;-78
2024/01/01 09:58:21;;;;;;;7.80;3.83;;;;;;;5.94;100.00;100059.19;5052512;28;20045;-79
2024/01/01 10:00:48;;;;;;;13.32;4.07;;;;;;;6.08;100.00;100084.72;5053165;28;20025;-79
2024/01/01 10:03:14;;;;;;;9.93;3.58;;;;;;;6.17;100.00;100080.03;5053041;28;20125;-78
2024/01/01 10:05:40;;;;;;;13.63;3.30;;;;;;;6.28;100.00;100097.97;5053305;28;20342;-79
2024/01/01 10:08:13;;;;;;;13.77;3.95;;;;;;;6.37;100.00;100095.97;5053200;28;20102;-77
2024/01/01 10:10:40;;;;;;;12.85;4.47;;;;;;;6.35;100.00;100104.09;5034352;28;20045;-80
2024/01/01 10:13:13;;;;;;;8.98;3.88;;;;;;;6.33;100.00;100095.53;5053189;28;20409;-78
2024/01/01 10:15:40;;;;;;;13.30;3.78;;;;;;;6.24;100.00;100120.66;5053015;28;20535;-78
2024/01/01 10:18:09;;;;;;;6.85;2.95;;;;;;;6.31;100.00;100108.19;5053100;28;20483;-79
2024/01/01 10:20:34;;;;;;;12.65;4.18;;;;;;;6.32;100.00;100101.84;5053024;28;20112;-78
2024/01/01 10:22:59;;;;;;;9.10;2.80;;;;;;;6.46;100.00;100090.22;5053019;28;20545;-78
2024/01/01 10:25:25;;;;;;;7.55;2.70;;;;;;;7.03;100.00;100117.91;5052927;28;20029;-79
2024/01/01 10:27:57;;;;;;;8.25;2.97;;;;;;;7.75;100.00;100116.78;5034976;28;20484;-80
2024/01/01 10:30:23;;;;;;;9.57;2.97;;;;;;;8.20;100.00;100111.38;5035162;28;20021;-80
2024/01/01 10:32:49;;;;;;;7.75;2.60;;;;;;;8.46;100.00;100126.38;5034760;28;20039;-78
2024/01/01 10:35:16;;;;;;;9.20;3.10;;;;;;;8.81;100.00;100131.19;5034932;28;20068;-78
2024/01/01 10:37:43;;;;;;;8.35;3.25;;;;;;;9.13;100.00;100134.56;5052784;28;20075;-80
2024/01/01 10:40:10;;;;;;;10.23;3.25;;;;;;;8.99;100.00;100125.91;5052887;28;20033;-77
2024/01/01 10:42:35;;;;;;;7.90;3.40;;;;;;;8.84;100.00;100134.22;5052648;28;20029;-79
2024/01/01 10:45:04;;;;;;;10.65;4.57;;;;;;;8.46;100.00;100093.59;5034845;28;20098;-77
2024/01/01 10:47:30;;;;;;;8.45;3.95;;;;;;;8.19;100.00;100122.25;5052553;28;20029;-77
2024/01/01 10:50:24;;;;;;;9.30;3.15;;;;;;;7.92;100.00;100140.25;5034641;28;20029;-81
2024/01/01 10:52:55;;;;;;;;;;;;;;;7.74;100.00;100141.75;5052381;28;20048;-78
2024/01/01 10:55:32;;;;;;;14.05;4.50;;;;;;;7.39;100.00;100135.19;5052590;28;19912;-76
2024/01/01 10:58:20;;;;;;;9.52;3.92;;;;;;;7.29;100.00;100129.50;5052388;28;20056;-80
2024/01/01 11:01:02;;;;;;;12.70;3.38;;;;;;;7.36;100.00;100143.59;5034585;28;20049;-76
2024/01/01 11:03:29;;;;;;;7.82;3.17;;;;;;;7.41;100.00;100136.59;5052522;28;20037;-76
2024/01/01 11:05:54;;;;;;;7.07;3.55;;;;;;;7.24;100.00;100129.31;5034380;28;20025;-77
2024/01/01 11:08:27;;;;;;;8.35;3.35;;;;;;;7.03;100.00;100139.19;5052416;28;20029;-75
2024/01/01 11:10:53;;;;;;;10.07;3.08;;;;;;;6.97;100.00;100141.88;5034386;28;20055;-77
2024/01/01 11:13:28;;;;;;;18.10;4.25;;;;;;;6.92;100.00;100147.78;5052207;28;20092;-75
2024/01/01 11:16:00;;;;;;;7.22;2.83;;;;;;;6.94;100.00;100150.22;5052357;28;20033;-78
2024/01/01 11:18:33;;;;;;;11.67;3.33;;;;;;;6.88;100.00;100154.53;5052093;28;20033;-78
2024/01/01 11:21:01;;;;;;;20.33;3.25;;;;;;;6.91;100.00;100161.25;5052064;28;20401;-75
2024/01/01 11:23:41;;;;;;;10.02;3.58;;;;;;;6.80;100.00;100162.72;5052153;28;20563;-78